Time;durP1;ratioP1;P1;durP2;ratioP2;P2;SDS_P1;SDS_P2;PMS_P1;PMS_P2;Temp;Humidity;BMP_temperature;BMP_pressure;BME280_temperature;BME280_humidity;BME280_pressure;Samples;Min_cycle;Max_cycle;Signal;HPM_P1;HPM_P2
2022/05/15 00:00:41;;;;;;;5.22;3.20;;;22.90;70.30;;;;;;10911022;32;20391;-72
2022/05/15 00:06:43;;;;;;;6.45;4.57;;;22.90;70.40;;;;;;10945157;32;20042;-72
2022/05/15 00:12:50;;;;;;;4.75;3.70;;;22.90;71.00;;;;;;10942358;32;20049;-72
2022/05/15 00:18:52;;;;;;;7.12;3.47;;;22.90;71.10;;;;;;10945084;32;20340;-72
2022/05/15 00:24:54;;;;;;;6.40;4.03;;;22.90;70.90;;;;;;10944362;32;20019;-72
2022/05/15 00:30:56;;;;;;;5.70;3.72;;;22.70;71.10;;;;;;10944228;32;20071;-72
2022/05/15 00:36:58;;;;;;;8.25;4.12;;;22.60;71.40;;;;;;10943418;32;20045;-72
2022/05/15 00:43:01;;;;;;;8.68;5.10;;;22.80;71.40;;;;;;10943956;32;20332;-72
2022/05/15 00:49:07;;;;;;;6.55;4.32;;;22.80;71.20;;;;;;10939427;32;20026;-72
2022/05/15 00:55:30;;;;;;;5.65;3.60;;;22.80;71.20;;;;;;10943449;32;20019;-72
2022/05/15 01:01:32;;;;;;;9.13;5.53;;;22.80;71.50;;;;;;10929987;32;20022;-72
2022/05/15 01:07:34;;;;;;;6.70;4.47;;;22.80;71.90;;;;;;10940216;32;20319;-72
2022/05/15 01:13:38;;;;;;;7.40;4.72;;;22.70;72.00;;;;;;10963414;27;20096;-72
2022/05/15 01:19:43;;;;;;;6.70;3.87;;;22.50;72.00;;;;;;11018940;32;20386;-72
2022/05/15 01:25:46;;;;;;;6.95;5.20;;;22.40;72.10;;;;;;11018792;32;20357;-72
2022/05/15 01:31:49;;;;;;;9.23;5.72;;;22.50;72.20;;;;;;11005082;32;20037;-72
2022/05/15 01:37:52;;;;;;;6.43;4.53;;;22.50;72.00;;;;;;11018628;32;20303;-72
2022/05/15 01:43:55;;;;;;;5.95;4.28;;;22.30;72.20;;;;;;11014352;32;20014;-72
2022/05/15 01:49:58;;;;;;;7.15;5.85;;;22.30;72.40;;;;;;11023328;32;20048;-72
2022/05/15 01:56:03;;;;;;;7.10;4.82;;;22.30;72.60;;;;;;11026061;32;20023;-72
2022/05/15 02:02:07;;;;;;;5.72;3.97;;;22.30;72.60;;;;;;11012403;32;20023;-72
2022/05/15 02:08:09;;;;;;;7.12;4.15;;;22.30;72.90;;;;;;11021376;32;20018;-72
2022/05/15 02:14:12;;;;;;;6.37;4.80;;;22.30;73.00;;;;;;11025577;32;20026;-72
2022/05/15 02:20:14;;;;;;;6.03;4.10;;;22.20;73.00;;;;;;11009734;32;20405;-72
2022/05/15 02:26:18;;;;;;;5.82;3.90;;;22.10;73.00;;;;;;11024530;32;20026;-72
2022/05/15 02:32:20;;;;;;;7.10;5.00;;;22.00;73.10;;;;;;11024534;32;20490;-72
2022/05/15 02:38:25;;;;;;;11.95;4.68;;;21.90;73.30;;;;;;11024298;32;20048;-72
2022/05/15 02:44:28;;;;;;;6.37;3.80;;;21.90;73.40;;;;;;11024266;32;20058;-72
2022/05/15 02:57:07;;;;;;;7.35;4.80;;;21.80;74.00;;;;;;11023811;32;20030;-72
2022/05/15 03:03:10;;;;;;;5.62;3.90;;;21.80;74.10;;;;;;11023306;32;20026;-72
2022/05/15 03:09:13;;;;;;;6.55;4.28;;;21.80;73.90;;;;;;11021365;32;20018;-72
2022/05/15 03:15:15;;;;;;;8.52;5.03;;;21.70;73.90;;;;;;11023002;32;20049;-72
2022/05/15 03:21:31;;;;;;;6.47;4.68;;;21.60;74.10;;;;;;11022603;32;20065;-72
2022/05/15 03:27:33;;;;;;;6.12;5.00;;;21.50;74.20;;;;;;11022656;32;20022;-72
2022/05/15 03:33:36;;;;;;;10.30;4.72;;;21.40;74.20;;;;;;11008888;32;20409;-72
2022/05/15 03:39:38;;;;;;;7.47;4.93;;;21.50;74.60;;;;;;11008621;32;20072;-72
2022/05/15 03:45:41;;;;;;;7.72;5.65;;;21.60;74.30;;;;;;11021942;32;20048;-72
2022/05/15 03:51:42;;;;;;;6.07;4.22;;;21.70;74.00;;;;;;11022056;32;20394;-72
2022/05/15 03:57:45;;;;;;;5.90;4.05;;;21.60;73.90;;;;;;11021477;32;20052;-72
2022/05/15 04:03:47;;;;;;;8.85;4.20;;;21.50;74.10;;;;;;11008023;32;20338;-72
2022/05/15 04:09:50;;;;;;;5.60;4.03;;;21.40;74.30;;;;;;11021235;32;20018;-72
2022/05/15 04:15:52;;;;;;;4.62;3.35;;;21.40;74.20;;;;;;11021015;32;20018;-72
2022/05/15 04:22:02;;;;;;;7.93;4.57;;;21.30;74.30;;;;;;11020785;32;20048;-72
2022/05/15 04:28:05;;;;;;;6.62;4.82;;;21.20;74.70;;;;;;11007151;32;20023;-72
2022/05/15 04:34:07;;;;;;;6.12;4.65;;;21.30;74.60;;;;;;11020282;32;20041;-72
2022/05/15 04:40:11;;;;;;;6.47;4.47;;;21.30;74.50;;;;;;11020354;32;20049;-72
2022/05/15 04:46:13;;;;;;;9.73;5.47;;;21.40;74.50;;;;;;11019934;32;20040;-72
2022/05/15 04:52:15;;;;;;;5.50;3.95;;;21.40;74.40;;;;;;11020197;32;20041;-72
2022/05/15 04:58:17;;;;;;;6.28;4.12;;;21.40;74.50;;;;;;11006237;32;20084;-72
2022/05/15 05:04:19;;;;;;;9.00;5.30;;;21.30;74.70;;;;;;11006198;32;20026;-72
2022/05/15 05:10:22;;;;;;;6.25;3.47;;;21.40;74.70;;;;;;11019557;32;20420;-72
2022/05/15 05:16:24;;;;;;;4.75;3.45;;;21.60;74.40;;;;;;11016464;32;20026;-72
2022/05/15 05:22:33;;;;;;;6.35;4.12;;;21.60;74.30;;;;;;11018696;32;20049;-72
2022/05/15 05:28:35;;;;;;;6.28;4.05;;;21.70;74.30;;;;;;11018493;32;20026;-71
2022/05/15 05:34:38;;;;;;;7.53;4.75;;;21.80;74.30;;;;;;11005184;32;20436;-71
2022/05/15 05:40:40;;;;;;;5.37;3.30;;;22.00;74.20;;;;;;11016392;32;20038;-72
2022/05/15 05:46:42;;;;;;;4.25;2.92;;;22.10;74.00;;;;;;11001271;32;20069;-72
2022/05/15 05:52:44;;;;;;;5.43;2.83;;;22.20;73.80;;;;;;11018892;32;20053;-72
2022/05/15 05:58:46;;;;;;;4.28;2.40;;;22.20;73.60;;;;;;11018061;32;20046;-72
2022/05/15 06:04:50;;;;;;;5.28;3.45;;;22.30;73.30;;;;;;11004542;32;20066;-72
2022/05/15 06:10:52;;;;;;;4.25;2.65;;;22.40;73.00;;;;;;11014579;32;20022;-72
2022/05/15 06:16:54;;;;;;;6.80;3.35;;;22.50;72.70;;;;;;11018128;32;20026;-72
2022/05/15 06:23:00;;;;;;;5.72;3.58;;;22.70;72.40;;;;;;11013608;32;20318;-72
2022/05/15 06:29:02;;;;;;;3.72;2.20;;;22.70;71.70;;;;;;11017379;32;20031;-72
2022/05/15 06:35:08;;;;;;;5.62;3.03;;;22.80;71.40;;;;;;11006456;32;20288;-72
2022/05/15 06:41:10;;;;;;;5.65;3.37;;;22.80;71.20;;;;;;11010979;32;20030;-72
2022/05/15 06:47:24;;;;;;;3.50;2.30;;;23.00;71.00;;;;;;11019910;32;20385;-72
2022/05/15 06:53:28;;;;;;;4.97;2.15;;;23.10;70.80;;;;;;11005715;32;20053;-73
2022/05/15 06:59:53;;;;;;;3.55;2.22;;;23.30;70.80;;;;;;11022165;32;20034;-71
2022/05/15 07:05:55;;;;;;;2.83;2.03;;;23.50;70.70;;;;;;11017314;32;20023;-71
2022/05/15 07:11:57;;;;;;;3.78;2.55;;;23.60;70.50;;;;;;10987610;32;20026;-71
2022/05/15 07:17:59;;;;;;;5.05;2.92;;;23.70;70.40;;;;;;10983596;32;20332;-69
2022/05/15 07:24:01;;;;;;;3.75;2.72;;;23.80;69.90;;;;;;10983494;32;20007;-72
2022/05/15 07:30:03;;;;;;;3.92;2.53;;;23.80;69.90;;;;;;10983423;32;20022;-72
2022/05/15 07:36:05;;;;;;;3.47;2.47;;;24.00;69.80;;;;;;10983120;32;20026;-72
2022/05/15 07:42:07;;;;;;;3.22;2.03;;;24.10;69.70;;;;;;10983650;32;20027;-73
2022/05/15 07:48:09;;;;;;;6.22;3.00;;;24.20;69.10;;;;;;11016239;32;20369;-72
2022/05/15 07:54:16;;;;;;;4.07;2.87;;;24.20;68.60;;;;;;11016518;32;20057;-75
2022/05/15 08:00:19;;;;;;;3.45;2.33;;;24.30;68.20;;;;;;11019860;32;20329;-73
2022/05/15 08:12:42;;;;;;;6.32;3.03;;;24.60;67.70;;;;;;10981369;32;20037;-77
2022/05/15 08:25:05;;;;;;;4.80;2.60;;;24.80;67.40;;;;;;10981571;32;20023;-73
2022/05/15 08:31:09;;;;;;;3.42;2.00;;;24.90;67.00;;;;;;10980878;32;20022;-76
2022/05/15 08:37:11;;;;;;;4.37;2.90;;;25.10;66.50;;;;;;10980799;32;20049;-75
2022/05/15 08:43:18;;;;;;;4.25;2.62;;;25.10;66.20;;;;;;11009220;32;20076;-75
2022/05/15 08:49:35;;;;;;;4.97;3.07;;;25.10;65.60;;;;;;11013620;32;20238;-76
2022/05/15 08:55:44;;;;;;;5.53;3.20;;;25.10;64.80;;;;;;10989019;32;20014;-76
2022/05/15 09:01:49;;;;;;;4.50;2.83;;;25.20;64.30;;;;;;10979395;32;20057;-71
2022/05/15 09:08:31;;;;;;;5.55;2.62;;;25.40;64.20;;;;;;10975430;32;20061;-75
2022/05/15 09:15:04;;;;;;;8.33;3.40;;;25.70;63.60;;;;;;10574215;27;12661173;-76
2022/05/15 09:21:14;;;;;;;3.80;2.50;;;25.80;63.10;;;;;;10900960;32;20055;-76
2022/05/15 09:27:20;;;;;;;4.07;2.28;;;25.80;62.90;;;;;;10899025;32;20308;-76
2022/05/15 09:33:44;;;;;;;4.87;3.42;;;26.00;62.40;;;;;;10887545;32;20019;-73
2022/05/15 09:39:51;;;;;;;4.82;3.15;;;26.10;61.40;;;;;;10903066;32;20031;-73
2022/05/15 09:45:57;;;;;;;5.40;3.92;;;26.30;61.30;;;;;;10941254;32;20019;-73
2022/05/15 09:52:07;;;;;;;5.40;2.97;;;26.50;61.10;;;;;;10940127;32;20073;-73
2022/05/15 09:58:19;;;;;;;5.90;4.00;;;26.50;60.20;;;;;;10940943;32;20031;-74
2022/05/15 10:04:39;;;;;;;4.07;2.62;;;26.60;59.60;;;;;;10912521;32;20032;-73
2022/05/15 10:11:13;;;;;;;7.75;3.62;;;26.70;59.40;;;;;;10891312;32;20027;-74
2022/05/15 10:17:16;;;;;;;6.25;3.05;;;26.80;58.70;;;;;;10747306;32;20055;-73
2022/05/15 10:23:28;;;;;;;8.82;3.65;;;26.90;58.10;;;;;;10766576;33;20037;-73
2022/05/15 10:30:27;;;;;;;5.37;3.50;;;27.20;58.10;;;;;;10759147;33;20021;-73
2022/05/15 10:36:39;;;;;;;5.47;3.62;;;27.40;57.40;;;;;;10649167;33;20428;-73
2022/05/15 10:43:18;;;;;;;6.35;3.87;;;27.60;56.80;;;;;;10649605;33;20048;-73
2022/05/15 10:49:51;;;;;;;6.05;3.17;;;27.80;56.50;;;;;;10614808;33;20046;-72
2022/05/15 11:03:10;;;;;;;3.65;2.35;;;28.40;56.30;;;;;;10656686;33;20028;-72
2022/05/15 11:09:37;;;;;;;4.12;2.75;;;28.70;55.70;;;;;;10756771;32;20405;-74
2022/05/15 11:16:40;;;;;;;3.60;2.40;;;29.10;55.20;;;;;;10684533;33;20037;-74
2022/05/15 11:22:48;;;;;;;4.97;3.20;;;29.40;54.30;;;;;;10696403;33;20025;-76
2022/05/15 11:28:57;;;;;;;8.43;5.10;;;29.50;53.40;;;;;;10744667;32;20111;-73
2022/05/15 11:35:21;;;;;;;5.60;2.90;;;29.50;53.50;;;;;;10756444;32;20050;-72
2022/05/15 11:41:35;;;;;;;7.07;2.75;;;29.70;53.40;;;;;;10755832;33;20398;-76
2022/05/15 11:47:39;;;;;;;7.85;3.65;;;30.00;52.70;;;;;;10751614;33;20048;-76
2022/05/15 11:53:48;;;;;;;8.45;3.58;;;30.10;52.20;;;;;;10812542;32;20050;-76
2022/05/15 11:59:57;;;;;;;4.78;2.83;;;30.10;51.70;;;;;;10906916;32;20031;-74
2022/05/15 12:06:07;;;;;;;35.40;3.62;;;30.20;51.00;;;;;;10906950;32;20414;-76
2022/05/15 12:12:23;;;;;;;5.10;3.40;;;30.30;50.90;;;;;;10906368;32;20316;-73
2022/05/15 12:18:32;;;;;;;4.85;3.20;;;30.40;50.60;;;;;;10906019;32;20046;-76
2022/05/15 12:24:43;;;;;;;5.78;3.45;;;30.30;50.80;;;;;;10905983;32;20096;-73
2022/05/15 12:30:46;;;;;;;;;;;30.10;51.20;;;;;;10905968;32;20027;-75
2022/05/15 12:36:55;;;;;;;7.28;4.30;;;30.10;51.50;;;;;;10905432;32;19922;-76
2022/05/15 12:42:59;;;;;;;5.28;3.65;;;30.30;51.00;;;;;;10905389;32;20437;-75
2022/05/15 12:49:03;;;;;;;3.85;2.95;;;30.30;50.70;;;;;;10905325;32;20384;-76
2022/05/15 12:55:10;;;;;;;7.95;2.85;;;30.20;50.20;;;;;;10905139;32;20023;-73
2022/05/15 13:01:13;;;;;;;4.93;3.30;;;30.00;50.40;;;;;;10891648;32;20046;-76
2022/05/15 13:07:41;;;;;;;6.25;3.60;;;30.20;50.30;;;;;;10904835;32;20011;-76
2022/05/15 13:13:44;;;;;;;;;;;30.40;50.00;;;;;;10904862;32;20309;-76
2022/05/15 13:19:51;;;;;;;4.82;3.05;;;30.50;49.80;;;;;;10902626;32;20198;-76
2022/05/15 13:25:56;;;;;;;5.80;3.70;;;30.50;49.90;;;;;;10904695;32;20038;-73
2022/05/15 13:31:58;;;;;;;5.10;3.22;;;30.60;50.00;;;;;;10904544;32;20449;-76
2022/05/15 13:38:12;;;;;;;3.95;2.90;;;30.70;49.60;;;;;;10903988;32;20027;-78
2022/05/15 13:44:17;;;;;;;3.90;2.53;;;30.50;49.90;;;;;;10906735;32;20023;-73
2022/05/15 13:50:45;;;;;;;5.70;3.22;;;30.00;50.70;;;;;;10911843;32;20296;-73
2022/05/15 13:57:00;;;;;;;6.28;3.33;;;29.80;51.40;;;;;;10934728;32;20050;-76
2022/05/15 14:03:08;;;;;;;6.00;2.75;;;30.10;51.40;;;;;;10948384;32;20343;-72
2022/05/15 14:09:15;;;;;;;6.18;3.55;;;30.00;51.10;;;;;;10935017;32;20045;-72
2022/05/15 14:15:37;;;;;;;4.53;3.10;;;29.90;51.30;;;;;;10943927;32;20351;-73
2022/05/15 14:22:16;;;;;;;6.62;4.03;;;30.00;51.90;;;;;;10948199;32;20401;-73
2022/05/15 14:28:22;;;;;;;3.92;2.55;;;30.10;51.90;;;;;;10947733;32;20026;-73
2022/05/15 14:34:30;;;;;;;4.03;2.67;;;30.20;51.40;;;;;;10947417;32;20023;-72
2022/05/15 14:40:33;;;;;;;4.12;2.47;;;30.30;51.40;;;;;;10947065;32;20061;-75
2022/05/15 14:46:36;;;;;;;4.07;2.65;;;30.30;51.30;;;;;;10946759;32;20019;-75
2022/05/15 14:52:38;;;;;;;4.72;3.35;;;30.30;51.20;;;;;;10946830;32;20027;-72
2022/05/15 14:59:00;;;;;;;6.97;3.58;;;30.40;51.10;;;;;;10945705;32;20057;-74
2022/05/15 15:05:15;;;;;;;3.40;2.33;;;30.30;50.70;;;;;;10947650;32;20026;-74
2022/05/15 15:11:20;;;;;;;7.90;2.58;;;30.30;50.60;;;;;;10942022;32;20433;-72
2022/05/15 15:17:22;;;;;;;6.70;2.62;;;30.30;50.50;;;;;;10945460;32;20023;-74
2022/05/15 15:23:24;;;;;;;3.58;2.92;;;30.30;50.30;;;;;;10934363;32;20061;-74
2022/05/15 15:29:26;;;;;;;5.97;2.90;;;30.20;50.30;;;;;;10934742;32;20022;-72
2022/05/15 15:35:28;;;;;;;5.62;3.20;;;30.20;50.40;;;;;;10908018;32;20011;-76
2022/05/15 15:41:30;;;;;;;6.62;2.80;;;30.30;50.10;;;;;;10907696;32;20038;-72
2022/05/15 15:47:33;;;;;;;3.62;2.30;;;30.30;50.00;;;;;;10907310;32;20019;-75
2022/05/15 15:53:47;;;;;;;8.63;3.83;;;30.20;49.90;;;;;;10906866;32;20027;-74
2022/05/15 15:59:50;;;;;;;5.97;2.67;;;30.20;49.70;;;;;;10906699;32;20051;-74
2022/05/15 16:05:57;;;;;;;4.32;2.37;;;30.30;49.70;;;;;;10906268;32;20039;-74
2022/05/15 16:11:59;;;;;;;7.62;3.35;;;30.30;49.60;;;;;;10906465;32;20428;-73
2022/05/15 16:18:01;;;;;;;4.78;3.42;;;30.20;49.50;;;;;;10906006;32;20035;-74
2022/05/15 16:24:04;;;;;;;13.35;3.60;;;30.00;49.70;;;;;;10905801;32;20023;-73
2022/05/15 16:30:27;;;;;;;6.72;2.97;;;29.90;49.80;;;;;;10905417;32;20452;-75
2022/05/15 16:36:30;;;;;;;4.40;2.75;;;29.80;49.70;;;;;;10925744;32;20063;-74
2022/05/15 16:42:36;;;;;;;5.47;3.12;;;29.70;49.70;;;;;;10931607;32;20031;-74
2022/05/15 16:48:39;;;;;;;6.40;4.05;;;29.60;49.60;;;;;;10942819;32;20527;-75
2022/05/15 16:54:41;;;;;;;15.05;6.97;;;29.50;49.90;;;;;;10942292;32;20039;-75
2022/05/15 17:00:46;;;;;;;9.95;4.53;;;29.40;49.90;;;;;;10941740;32;20049;-74
2022/05/15 17:06:48;;;;;;;6.60;4.55;;;29.30;49.90;;;;;;10942056;32;20023;-74
2022/05/15 17:12:54;;;;;;;14.02;10.65;;;29.30;49.90;;;;;;10941999;27;20332;-75
2022/05/15 17:18:56;;;;;;;9.60;6.97;;;29.20;49.80;;;;;;10904080;32;20019;-75
2022/05/15 17:24:59;;;;;;;9.55;6.25;;;29.10;50.10;;;;;;10904077;32;20054;-75
2022/05/15 17:37:26;;;;;;;5.60;4.00;;;29.10;50.70;;;;;;10898973;32;20039;-75
2022/05/15 17:43:28;;;;;;;7.57;3.62;;;29.50;50.30;;;;;;10904027;32;20419;-74
2022/05/15 17:49:30;;;;;;;5.95;3.25;;;30.30;49.20;;;;;;10902051;32;20082;-75
2022/05/15 17:55:32;;;;;;;4.93;3.03;;;30.80;48.50;;;;;;10903554;32;20007;-75
2022/05/15 18:01:36;;;;;;;3.60;2.20;;;30.20;49.60;;;;;;10903941;32;20323;-75
2022/05/15 18:08:09;;;;;;;4.03;2.25;;;29.60;50.80;;;;;;10903530;32;20022;-75
2022/05/15 18:14:11;;;;;;;5.30;2.17;;;29.20;51.80;;;;;;10903105;32;20058;-74
2022/05/15 18:20:14;;;;;;;3.65;2.12;;;28.80;52.60;;;;;;10898445;32;20434;-75
2022/05/15 18:26:18;;;;;;;3.47;1.98;;;28.50;53.00;;;;;;10902426;32;20023;-75
2022/05/15 18:32:23;;;;;;;2.62;1.17;;;28.30;53.40;;;;;;10907425;32;20054;-75
2022/05/15 18:38:25;;;;;;;4.60;1.58;;;28.20;53.60;;;;;;10905704;32;20039;-75
2022/05/15 18:44:30;;;;;;;3.08;1.62;;;28.00;53.90;;;;;;10909653;32;20023;-75
2022/05/15 18:56:57;;;;;;;4.62;1.83;;;27.70;54.60;;;;;;10909484;32;20049;-75
2022/05/15 19:02:59;;;;;;;3.03;1.37;;;27.60;54.90;;;;;;10892355;32;20380;-75
2022/05/15 19:09:06;;;;;;;2.85;1.90;;;27.50;55.20;;;;;;10908360;32;20400;-74
2022/05/15 19:15:10;;;;;;;2.50;1.30;;;27.40;55.50;;;;;;10904977;32;20062;-72
2022/05/15 19:21:17;;;;;;;4.70;1.67;;;27.30;55.80;;;;;;10887393;32;20045;-72
2022/05/15 19:28:01;;;;;;;4.55;2.12;;;27.30;56.10;;;;;;10908006;32;20422;-72
2022/05/15 19:34:15;;;;;;;4.43;1.98;;;27.20;56.30;;;;;;10908006;32;20023;-72
2022/05/15 19:40:17;;;;;;;5.30;2.55;;;27.10;56.80;;;;;;10905377;32;20336;-72
2022/05/15 19:46:19;;;;;;;3.80;1.62;;;27.00;57.10;;;;;;10886467;32;20028;-72
2022/05/15 19:52:21;;;;;;;2.30;1.37;;;27.00;57.30;;;;;;10856787;32;20019;-73
2022/05/15 19:58:24;;;;;;;1.80;1.25;;;26.90;57.50;;;;;;10868709;32;20054;-73
2022/05/15 20:04:26;;;;;;;2.08;1.30;;;26.80;57.60;;;;;;10871792;32;20458;-73
2022/05/15 20:16:50;;;;;;;1.70;1.20;;;26.80;58.10;;;;;;10906683;32;20063;-71
2022/05/15 20:22:55;;;;;;;2.30;1.25;;;26.70;58.40;;;;;;10893100;32;20315;-76
2022/05/15 20:28:58;;;;;;;1.98;1.33;;;26.70;58.60;;;;;;10902320;32;20386;-76
2022/05/15 20:35:04;;;;;;;2.53;1.50;;;26.60;58.90;;;;;;10906345;32;20376;-76
2022/05/15 20:41:07;;;;;;;3.50;1.75;;;26.60;59.10;;;;;;10905928;32;20027;-76
2022/05/15 20:47:09;;;;;;;3.95;1.17;;;26.50;59.40;;;;;;10905703;32;20340;-73
2022/05/15 20:53:13;;;;;;;3.50;1.52;;;26.40;59.50;;;;;;10901664;32;20343;-73
2022/05/15 20:59:44;;;;;;;2.72;1.73;;;26.30;59.70;;;;;;10905310;32;20023;-72
2022/05/15 21:05:53;;;;;;;3.35;1.70;;;26.30;59.80;;;;;;10892712;32;20517;-73
2022/05/15 21:11:55;;;;;;;2.17;1.55;;;26.30;60.10;;;;;;10903255;32;20011;-73
2022/05/15 21:17:57;;;;;;;2.78;1.42;;;26.30;60.30;;;;;;10904635;32;20042;-73
2022/05/15 21:23:59;;;;;;;1.95;1.48;;;26.20;60.50;;;;;;10904685;32;20324;-73
2022/05/15 21:30:02;;;;;;;2.12;1.42;;;26.10;60.60;;;;;;10904708;32;20343;-73
2022/05/15 21:36:06;;;;;;;1.77;1.23;;;26.00;60.90;;;;;;10904577;32;20035;-75
2022/05/15 21:48:36;;;;;;;3.85;1.73;;;25.90;61.30;;;;;;10904586;32;20016;-76
2022/05/15 21:54:55;;;;;;;3.85;2.05;;;25.90;61.50;;;;;;10892822;32;20038;-76
2022/05/15 22:01:40;;;;;;;2.85;1.87;;;25.80;61.80;;;;;;10904023;32;20058;-76
2022/05/15 22:07:42;;;;;;;4.00;2.15;;;25.60;62.30;;;;;;10909753;32;20019;-76
2022/05/15 22:13:44;;;;;;;9.10;2.67;;;25.60;62.40;;;;;;10911182;32;20027;-76
2022/05/15 22:19:47;;;;;;;2.45;1.80;;;25.50;63.30;;;;;;10907222;32;20058;-76
2022/05/15 22:25:50;;;;;;;3.92;2.45;;;25.40;63.80;;;;;;10910919;32;20395;-75
2022/05/15 22:31:53;;;;;;;6.80;2.60;;;25.30;63.80;;;;;;10897212;32;20042;-75
2022/05/15 22:37:55;;;;;;;2.87;1.73;;;25.30;64.20;;;;;;10906207;32;20024;-75
2022/05/15 22:43:58;;;;;;;7.25;2.37;;;25.30;64.70;;;;;;10910363;32;20020;-76
2022/05/15 22:50:00;;;;;;;2.20;1.75;;;25.20;64.60;;;;;;10909995;32;20093;-76
2022/05/15 22:56:02;;;;;;;4.50;1.98;;;25.10;64.80;;;;;;10908038;32;20020;-76
2022/05/15 23:02:05;;;;;;;2.50;1.58;;;25.00;64.90;;;;;;10909486;32;20035;-76
2022/05/15 23:08:08;;;;;;;4.55;1.92;;;24.90;65.10;;;;;;10908616;32;20046;-76
2022/05/15 23:14:10;;;;;;;2.65;1.75;;;24.90;65.20;;;;;;10909119;32;20073;-76
2022/05/15 23:20:12;;;;;;;3.40;2.00;;;24.90;65.40;;;;;;10908090;32;20042;-76
2022/05/15 23:26:14;;;;;;;3.65;2.33;;;24.80;65.60;;;;;;10908894;32;20023;-76
2022/05/15 23:32:18;;;;;;;4.90;1.92;;;24.80;65.70;;;;;;10908689;32;20015;-76
2022/05/15 23:38:19;;;;;;;3.00;1.98;;;24.70;66.30;;;;;;10908228;32;20063;-76
2022/05/15 23:44:21;;;;;;;2.75;2.08;;;24.70;66.60;;;;;;10905414;32;20023;-76
2022/05/15 23:50:24;;;;;;;5.35;2.62;;;24.70;66.60;;;;;;10908023;32;20351;-76
2022/05/15 23:56:27;;;;;;;2.65;1.85;;;24.60;66.60;;;;;;10907634;32;20027;-76
